Time;durP1;ratioP1;P1;durP2;ratioP2;P2;SDS_P1;SDS_P2;PMS_P1;PMS_P2;Temp;Humidity;BMP_temperature;BMP_pressure;BME280_temperature;BME280_humidity;BME280_pressure;Samples;Min_cycle;Max_cycle;Signal;HPM_P1;HPM_P2
2022/04/22 00:00:52;;;;;;;0.57;0.40;;;;;;;13.17;68.56;100535.03;4949702;29;20043;-71
2022/04/22 00:03:21;;;;;;;1.75;0.68;;;;;;;13.11;68.76;100521.09;4948911;29;20574;-73
2022/04/22 00:05:49;;;;;;;1.23;0.77;;;;;;;13.20;66.66;100529.88;4949248;28;20085;-72
2022/04/22 00:08:22;;;;;;;1.10;0.57;;;;;;;13.23;67.25;100523.00;4948990;29;20047;-71
2022/04/22 00:13:35;;;;;;;1.35;0.70;;;;;;;13.29;69.44;100543.91;4949407;29;20183;-73
2022/04/22 00:16:06;;;;;;;1.40;0.95;;;;;;;13.26;67.21;100554.19;4949007;29;20544;-73
2022/04/22 00:18:35;;;;;;;1.42;0.75;;;;;;;13.23;68.35;100559.38;4949536;29;20047;-73
2022/04/22 00:21:04;;;;;;;3.42;0.80;;;;;;;13.15;69.10;100567.03;4949427;29;20563;-72
2022/04/22 00:23:32;;;;;;;0.85;0.60;;;;;;;13.08;70.03;100560.88;4949006;29;20592;-72
2022/04/22 00:26:01;;;;;;;1.10;0.60;;;;;;;13.10;70.86;100548.78;4965033;28;20055;-72
2022/04/22 00:28:29;;;;;;;2.40;0.80;;;;;;;13.18;71.35;100543.72;4968706;28;20082;-73
2022/04/22 00:30:58;;;;;;;1.55;0.63;;;;;;;13.21;73.72;100536.81;4968746;28;20055;-72
2022/04/22 00:33:28;;;;;;;1.85;0.60;;;;;;;13.25;74.47;100537.75;4968131;28;20556;-72
2022/04/22 00:35:56;;;;;;;1.15;0.60;;;;;;;13.28;71.43;100532.63;4968208;28;20088;-74
2022/04/22 00:38:25;;;;;;;0.80;0.60;;;;;;;13.30;74.66;100511.88;4968879;28;20116;-74
2022/04/22 00:40:55;;;;;;;5.00;0.80;;;;;;;13.30;73.25;100519.66;4969397;28;20082;-73
2022/04/22 00:43:24;;;;;;;1.35;0.65;;;;;;;13.29;72.66;100529.19;4970138;28;20146;-72
2022/04/22 00:45:54;;;;;;;1.48;0.70;;;;;;;13.30;72.44;100528.31;4969017;28;20047;-73
2022/04/22 00:48:23;;;;;;;2.60;1.02;;;;;;;13.36;70.98;100532.75;4968853;28;20063;-73
2022/04/22 00:50:54;;;;;;;2.53;1.10;;;;;;;13.43;71.27;100537.19;4972492;28;20074;-72
2022/04/22 00:53:22;;;;;;;2.17;0.60;;;;;;;13.44;68.50;100533.72;4971452;28;20068;-71
2022/04/22 00:55:51;;;;;;;1.70;0.73;;;;;;;13.41;69.39;100538.88;4971643;28;20093;-73
2022/04/22 00:58:20;;;;;;;1.23;0.70;;;;;;;13.41;69.90;100536.28;4971567;28;20079;-72
2022/04/22 01:00:48;;;;;;;1.45;0.70;;;;;;;13.41;65.71;100541.47;4972290;28;20137;-71
2022/04/22 01:03:17;;;;;;;4.38;0.70;;;;;;;13.35;66.83;100556.97;4970939;28;20509;-72
2022/04/22 01:11:21;;;;;;;1.65;0.73;;;;;;;13.42;69.93;100566.59;4985187;28;20521;-72
2022/04/22 01:13:50;;;;;;;4.25;0.93;;;;;;;13.49;68.55;100563.28;4990616;28;20054;-73
2022/04/22 01:16:19;;;;;;;3.05;1.00;;;;;;;13.55;68.48;100568.53;4991147;28;20054;-73
2022/04/22 01:18:47;;;;;;;0.95;0.70;;;;;;;13.58;68.84;100568.59;4991415;28;20081;-73
2022/04/22 01:21:17;;;;;;;1.58;0.70;;;;;;;13.62;68.77;100570.38;4990809;28;20046;-74
2022/04/22 01:23:45;;;;;;;1.30;1.00;;;;;;;13.69;66.53;100570.47;4990275;28;20090;-73
2022/04/22 01:26:15;;;;;;;2.03;0.90;;;;;;;13.69;67.57;100576.53;4990829;28;20054;-75
2022/04/22 01:28:44;;;;;;;3.10;0.85;;;;;;;13.70;65.26;100583.50;4990550;28;20053;-77
2022/04/22 01:31:12;;;;;;;1.73;0.60;;;;;;;13.71;65.61;100584.38;4990563;28;20053;-77
2022/04/22 01:33:41;;;;;;;3.88;0.73;;;;;;;13.69;62.88;100591.25;4990164;28;20169;-76
2022/04/22 01:36:09;;;;;;;2.38;0.75;;;;;;;13.67;63.63;100592.97;4990443;28;20089;-74
2022/04/22 01:38:39;;;;;;;2.85;0.80;;;;;;;13.61;64.09;100597.22;4993598;28;20280;-76
2022/04/22 01:41:08;;;;;;;1.77;0.90;;;;;;;13.57;63.77;100598.03;4991717;28;20488;-75
2022/04/22 01:43:36;;;;;;;1.13;0.73;;;;;;;13.53;63.71;100606.63;4990189;28;20058;-76
2022/04/22 01:46:05;;;;;;;1.27;0.73;;;;;;;13.49;65.26;100599.66;4990213;28;20420;-74
2022/04/22 01:48:33;;;;;;;4.18;1.00;;;;;;;13.43;63.31;100606.50;4989920;28;20109;-76
2022/04/22 01:51:02;;;;;;;0.88;0.73;;;;;;;13.37;63.43;100602.06;4990753;28;20058;-77
2022/04/22 01:53:30;;;;;;;2.55;0.93;;;;;;;13.34;65.03;100604.63;4989764;28;20112;-75
2022/04/22 01:56:00;;;;;;;1.48;0.88;;;;;;;13.30;65.40;100603.69;4989548;28;20050;-75
2022/04/22 01:58:29;;;;;;;2.55;0.77;;;;;;;13.27;64.49;100602.75;4989797;28;20097;-75
2022/04/22 02:00:57;;;;;;;1.52;0.90;;;;;;;13.23;64.28;100604.41;4989367;28;20054;-75
2022/04/22 02:03:26;;;;;;;1.65;0.73;;;;;;;13.20;63.84;100597.44;4989055;28;20054;-75
2022/04/22 02:05:54;;;;;;;5.97;0.85;;;;;;;13.14;65.67;100597.31;4989810;28;20580;-76
2022/04/22 02:08:23;;;;;;;2.92;0.85;;;;;;;13.10;65.58;100595.56;4989894;28;20104;-75
2022/04/22 02:10:51;;;;;;;1.25;0.70;;;;;;;13.07;66.62;100600.66;4961598;28;20551;-76
2022/04/22 02:13:21;;;;;;;0.93;0.80;;;;;;;13.00;66.19;100599.69;4949964;29;20141;-77
2022/04/22 02:15:50;;;;;;;1.13;0.60;;;;;;;12.98;66.52;100601.38;4951132;29;20048;-75
2022/04/22 02:18:18;;;;;;;2.03;0.98;;;;;;;12.96;71.46;100607.41;4950964;29;20564;-75
2022/04/22 02:20:47;;;;;;;2.28;0.60;;;;;;;12.93;73.53;100603.03;4951214;29;20098;-77
2022/04/22 02:23:15;;;;;;;2.33;0.95;;;;;;;12.88;71.67;100601.22;4950342;29;20050;-77
2022/04/22 02:25:44;;;;;;;1.50;0.88;;;;;;;12.85;70.68;100598.53;4951104;29;20138;-77
2022/04/22 02:30:59;;;;;;;1.48;0.80;;;;;;;12.76;70.42;100600.16;4970504;28;20062;-77
2022/04/22 02:33:28;;;;;;;3.50;1.00;;;;;;;12.71;70.69;100600.91;4970707;28;20086;-80
2022/04/22 02:35:56;;;;;;;1.58;1.13;;;;;;;12.65;70.12;100612.06;4972326;28;20145;-77
2022/04/22 02:38:25;;;;;;;4.75;1.15;;;;;;;12.61;70.78;100604.19;4969836;28;20776;-77
2022/04/22 02:46:25;;;;;;;1.60;0.80;;;;;;;12.51;72.69;100623.91;4969645;28;20193;-77
2022/04/22 02:48:54;;;;;;;2.47;0.90;;;;;;;12.47;72.24;100627.28;4969204;28;20042;-76
2022/04/22 02:51:22;;;;;;;1.35;0.70;;;;;;;12.45;72.36;100626.38;4969855;28;20117;-76
2022/04/22 02:53:51;;;;;;;2.50;0.70;;;;;;;12.38;73.62;100637.47;4969510;28;20094;-76
2022/04/22 02:56:20;;;;;;;1.45;0.77;;;;;;;12.31;72.87;100629.56;4968555;28;20085;-76
2022/04/22 02:58:49;;;;;;;1.15;0.75;;;;;;;12.29;71.84;100639.03;4969628;28;20509;-77
2022/04/22 03:01:18;;;;;;;0.93;0.60;;;;;;;12.23;72.00;100638.91;4969580;28;20472;-76
2022/04/22 03:03:48;;;;;;;1.98;0.93;;;;;;;12.17;71.02;100643.97;4968860;28;20488;-77
2022/04/22 03:06:17;;;;;;;1.88;0.80;;;;;;;12.13;71.62;100647.34;4965610;28;20051;-76
2022/04/22 03:08:45;;;;;;;1.38;0.80;;;;;;;12.08;71.94;100641.19;4949622;28;20136;-75
2022/04/22 03:11:21;;;;;;;1.13;0.80;;;;;;;12.05;71.73;100644.59;4972115;28;20117;-77
2022/04/22 03:13:50;;;;;;;1.58;0.80;;;;;;;12.01;72.37;100644.50;4988660;28;20050;-78
2022/04/22 03:16:20;;;;;;;1.25;0.65;;;;;;;11.95;72.82;100653.84;4989151;28;20042;-79
2022/04/22 03:18:50;;;;;;;2.15;0.88;;;;;;;11.90;73.69;100655.47;4989921;28;20102;-78
2022/04/22 03:21:18;;;;;;;2.78;1.17;;;;;;;11.84;73.54;100655.34;4989798;28;20046;-81
2022/04/22 03:23:47;;;;;;;1.40;0.75;;;;;;;11.78;73.39;100644.81;4989117;28;20576;-79
2022/04/22 03:26:15;;;;;;;1.60;0.80;;;;;;;11.73;73.70;100656.81;4989036;28;20062;-81
2022/04/22 03:28:44;;;;;;;1.58;0.80;;;;;;;11.67;74.85;100646.28;4987929;28;20116;-81
2022/04/22 03:31:13;;;;;;;1.08;0.60;;;;;;;11.64;76.68;100659.19;4992020;28;20089;-81
2022/04/22 03:33:41;;;;;;;1.58;0.90;;;;;;;11.59;76.49;100659.06;4989065;28;20564;-82
2022/04/22 03:36:11;;;;;;;2.65;0.73;;;;;;;11.56;76.02;100658.09;4989817;28;20050;-80
2022/04/22 03:38:40;;;;;;;1.77;0.85;;;;;;;11.53;77.08;100654.59;4989285;28;20046;-78
2022/04/22 03:41:09;;;;;;;3.60;0.82;;;;;;;11.52;77.75;100662.31;4988250;28;20096;-79
2022/04/22 03:43:37;;;;;;;1.75;0.80;;;;;;;11.50;78.44;100661.44;4987121;28;20043;-74
2022/04/22 03:46:06;;;;;;;2.00;0.73;;;;;;;11.46;79.72;100663.06;4988140;28;20054;-76
2022/04/22 03:48:34;;;;;;;2.85;0.90;;;;;;;11.41;79.76;100662.09;4988365;28;20499;-77
2022/04/22 03:51:03;;;;;;;2.03;0.77;;;;;;;11.38;79.96;100664.59;4989056;28;20047;-74
2022/04/22 03:53:36;;;;;;;1.40;0.70;;;;;;;11.30;79.62;100656.63;4988402;28;20085;-76
2022/04/22 03:58:47;;;;;;;2.17;0.70;;;;;;;11.39;78.77;100683.63;4988603;28;20070;-74
2022/04/22 04:01:16;;;;;;;1.20;0.70;;;;;;;11.39;79.96;100681.91;4988350;28;20047;-76
2022/04/22 04:03:44;;;;;;;1.42;0.70;;;;;;;11.39;79.72;100683.63;4987856;28;20074;-76
2022/04/22 04:06:13;;;;;;;1.20;0.80;;;;;;;11.39;79.09;100684.50;4988067;28;20048;-76
2022/04/22 04:15:57;;;;;;;1.42;0.80;;;;;;;11.38;79.26;100692.22;4988740;28;20046;-76
2022/04/22 04:17:02;;;;;;;1.00;0.57;;;;;;;11.17;83.62;100723.63;4988281;28;20101;-75
2022/04/22 04:25:02;;;;;;;1.42;0.70;;;;;;;10.88;100.00;100740.13;4991855;28;20112;-72
2022/04/22 04:27:31;;;;;;;1.50;1.10;;;;;;;10.84;100.00;100752.94;4994371;28;20085;-74
2022/04/22 04:29:59;;;;;;;1.60;0.90;;;;;;;10.79;100.00;100749.31;4992507;28;20050;-73
2022/04/22 04:32:28;;;;;;;5.70;1.35;;;;;;;10.75;100.00;100752.69;4991856;28;20046;-75
2022/04/22 04:34:56;;;;;;;3.20;0.90;;;;;;;10.70;100.00;100755.13;4991712;28;20086;-76
2022/04/22 04:37:25;;;;;;;2.75;0.90;;;;;;;10.66;100.00;100764.50;4992031;28;20128;-77
2022/04/22 04:39:56;;;;;;;1.55;0.90;;;;;;;10.61;100.00;100766.09;4992220;28;20144;-78
2022/04/22 04:42:26;;;;;;;1.27;0.70;;;;;;;10.55;100.00;100760.72;4990957;28;20050;-78
2022/04/22 04:44:55;;;;;;;2.85;0.88;;;;;;;10.51;100.00;100770.94;4991721;28;20113;-77
2022/04/22 04:47:23;;;;;;;2.63;0.70;;;;;;;10.45;100.00;100772.50;4990943;28;20050;-76
2022/04/22 04:49:52;;;;;;;0.93;0.55;;;;;;;10.46;100.00;100791.50;4991403;28;20108;-75
2022/04/22 04:52:20;;;;;;;1.48;0.68;;;;;;;10.43;100.00;100788.81;4990306;28;20088;-77
2022/04/22 04:54:50;;;;;;;1.15;0.70;;;;;;;10.45;100.00;100792.34;4992667;28;20487;-79
2022/04/22 04:57:19;;;;;;;2.58;0.88;;;;;;;10.43;100.00;100791.41;4993080;28;20500;-80
2022/04/22 04:59:49;;;;;;;1.20;0.70;;;;;;;10.38;100.00;100792.97;4991721;28;20077;-80
2022/04/22 05:02:17;;;;;;;2.95;0.68;;;;;;;10.34;100.00;100796.31;4991201;28;20092;-78
2022/04/22 05:04:46;;;;;;;3.80;0.70;;;;;;;10.34;100.00;100785.97;4990741;28;20468;-79
2022/04/22 05:07:14;;;;;;;2.45;0.80;;;;;;;10.34;100.00;100791.13;4992009;28;20690;-78
2022/04/22 05:09:43;;;;;;;1.38;0.77;;;;;;;10.31;100.00;100778.97;4993914;28;20046;-81
2022/04/22 05:12:12;;;;;;;2.35;0.70;;;;;;;10.29;100.00;100779.78;4990286;28;20058;-79
2022/04/22 05:14:40;;;;;;;1.08;0.73;;;;;;;10.20;100.00;100768.25;4990665;28;20078;-78
2022/04/22 05:17:10;;;;;;;2.75;0.93;;;;;;;10.12;100.00;100769.72;4990897;28;20058;-80
2022/04/22 05:19:39;;;;;;;2.38;0.80;;;;;;;9.99;100.00;100767.59;4990910;28;20096;-79
2022/04/22 05:22:07;;;;;;;1.38;0.70;;;;;;;9.89;100.00;100765.53;4993114;28;20076;-81
2022/04/22 05:24:37;;;;;;;1.10;0.70;;;;;;;9.85;100.00;100768.03;4995581;28;20050;-80
2022/04/22 05:27:05;;;;;;;1.27;0.60;;;;;;;9.86;100.00;100767.19;4992340;28;20046;-80
2022/04/22 05:32:39;;;;;;;0.93;0.60;;;;;;;9.93;100.00;100775.16;4990912;28;20060;-80
2022/04/22 05:35:09;;;;;;;3.63;0.90;;;;;;;9.91;100.00;100763.88;4990021;28;20683;-81
2022/04/22 05:37:45;;;;;;;1.55;0.80;;;;;;;9.95;100.00;100764.03;4991489;28;20416;-81
2022/04/22 05:40:15;;;;;;;1.48;0.70;;;;;;;9.99;100.00;100768.47;4991596;28;20046;-82
2022/04/22 05:42:44;;;;;;;3.30;1.10;;;;;;;10.01;100.00;100765.91;4991095;28;20813;-80
2022/04/22 05:45:14;;;;;;;1.48;0.80;;;;;;;10.02;100.00;100762.50;4990289;28;20122;-79
2022/04/22 05:47:44;;;;;;;0.77;0.63;;;;;;;10.00;100.00;100759.88;4991205;28;20452;-81
2022/04/22 05:50:14;;;;;;;2.38;0.75;;;;;;;10.01;100.00;100766.81;4991197;28;20060;-80
2022/04/22 05:52:43;;;;;;;1.88;1.10;;;;;;;9.99;100.00;100768.47;4990730;28;20058;-80
2022/04/22 05:55:13;;;;;;;2.88;1.15;;;;;;;10.00;100.00;100770.22;4991617;28;20058;-78
2022/04/22 05:57:42;;;;;;;3.00;1.35;;;;;;;10.00;100.00;100774.50;4990580;28;20059;-77
2022/04/22 06:00:12;;;;;;;5.05;1.30;;;;;;;9.99;100.00;100772.78;4990709;28;20571;-78
2022/04/22 06:02:41;;;;;;;4.32;1.52;;;;;;;9.99;100.00;100773.63;4990709;28;20050;-76
2022/04/22 06:05:12;;;;;;;1.98;1.05;;;;;;;9.97;100.00;100772.72;4990752;28;20050;-77
2022/04/22 06:07:41;;;;;;;3.25;1.48;;;;;;;9.95;100.00;100776.06;4990524;28;20512;-77
2022/04/22 06:12:57;;;;;;;3.22;1.23;;;;;;;9.90;100.00;100780.22;4990190;28;20606;-76
2022/04/22 06:15:25;;;;;;;3.28;1.35;;;;;;;9.88;100.00;100787.06;4989675;28;20051;-77
2022/04/22 06:17:54;;;;;;;2.17;1.20;;;;;;;9.85;100.00;100796.44;4990562;28;20078;-77
2022/04/22 06:20:24;;;;;;;3.58;1.38;;;;;;;9.85;100.00;100791.28;4990910;28;20185;-76
2022/04/22 06:22:52;;;;;;;2.30;1.27;;;;;;;9.84;100.00;100799.84;4992790;28;20057;-77
2022/04/22 06:25:21;;;;;;;1.75;1.08;;;;;;;9.83;100.00;100798.09;4990940;28;20034;-76
2022/04/22 06:27:49;;;;;;;3.40;1.30;;;;;;;9.80;100.00;100805.75;4990292;28;20121;-77
2022/04/22 06:30:19;;;;;;;2.65;1.00;;;;;;;9.79;100.00;100805.72;4989563;28;20134;-77
2022/04/22 06:32:50;;;;;;;2.72;1.17;;;;;;;9.78;100.00;100809.09;4989807;28;20058;-77
2022/04/22 06:35:20;;;;;;;1.95;0.98;;;;;;;9.77;100.00;100808.22;4989576;28;20576;-76
2022/04/22 06:37:51;;;;;;;4.03;1.70;;;;;;;9.73;100.00;100808.94;4990111;28;20134;-76
2022/04/22 06:45:54;;;;;;;2.08;1.30;;;;;;;9.69;100.00;100817.44;4990060;28;20082;-76
2022/04/22 06:48:25;;;;;;;4.38;1.20;;;;;;;9.67;100.00;100821.69;4989372;28;20050;-77
2022/04/22 06:50:56;;;;;;;1.42;1.00;;;;;;;9.67;100.00;100828.53;4989981;28;20101;-77
2022/04/22 06:53:28;;;;;;;2.13;1.10;;;;;;;9.64;100.00;100821.56;4989516;28;20133;-77
2022/04/22 06:55:59;;;;;;;3.50;1.02;;;;;;;9.64;100.00;100826.72;4989429;28;20137;-77
2022/04/22 06:58:28;;;;;;;4.00;1.55;;;;;;;9.61;100.00;100822.31;4989376;28;20078;-76
2022/04/22 07:00:56;;;;;;;5.25;1.30;;;;;;;9.59;100.00;100830.84;4989617;28;20046;-76
2022/04/22 07:03:25;;;;;;;2.88;1.25;;;;;;;9.58;100.00;100826.53;4988790;28;20550;-76
2022/04/22 07:05:54;;;;;;;6.00;1.40;;;;;;;9.57;100.00;100835.09;4989736;28;20042;-76
2022/04/22 07:08:23;;;;;;;1.98;1.38;;;;;;;9.56;100.00;100829.06;4989169;28;20081;-76
2022/04/22 07:10:53;;;;;;;2.22;1.45;;;;;;;9.54;100.00;100835.00;4989166;28;20587;-75
2022/04/22 07:13:22;;;;;;;2.08;1.23;;;;;;;9.56;100.00;100835.94;4988888;28;20058;-76
2022/04/22 07:15:51;;;;;;;3.05;1.38;;;;;;;9.56;100.00;100835.94;4989188;28;20125;-75
2022/04/22 07:18:20;;;;;;;1.55;0.95;;;;;;;9.54;100.00;100830.69;4991420;28;20134;-75
2022/04/22 07:20:49;;;;;;;4.63;1.45;;;;;;;9.54;100.00;100829.81;4990581;28;20051;-76
2022/04/22 07:23:18;;;;;;;0.98;0.85;;;;;;;9.54;100.00;100833.28;4989157;28;20046;-76
2022/04/22 07:25:48;;;;;;;1.65;1.10;;;;;;;9.53;100.00;100836.72;4989073;28;20137;-75
2022/04/22 07:28:19;;;;;;;4.43;1.33;;;;;;;9.53;100.00;100843.53;4987632;28;20061;-75
2022/04/22 07:30:50;;;;;;;2.63;1.17;;;;;;;9.52;100.00;100841.81;4989184;28;20077;-76
2022/04/22 07:33:19;;;;;;;1.33;0.95;;;;;;;9.51;100.00;100834.91;4988441;28;20046;-74
2022/04/22 07:35:47;;;;;;;4.05;1.02;;;;;;;9.49;100.00;100840.00;4988852;28;20088;-74
2022/04/22 07:38:18;;;;;;;2.08;0.90;;;;;;;9.47;100.00;100833.03;4988443;28;20043;-75
2022/04/22 07:40:50;;;;;;;1.35;0.95;;;;;;;9.44;100.00;100839.84;4989168;28;20058;-74
2022/04/22 07:48:55;;;;;;;1.02;0.68;;;;;;;9.31;100.00;100839.34;4989403;28;20143;-74
2022/04/22 07:51:26;;;;;;;1.27;0.85;;;;;;;9.28;100.00;100831.47;4988887;28;20058;-76
2022/04/22 07:53:55;;;;;;;1.33;0.80;;;;;;;9.25;100.00;100842.56;4988609;28;20500;-75
2022/04/22 07:56:24;;;;;;;1.17;0.63;;;;;;;9.25;100.00;100847.72;4988817;28;20152;-76
2022/04/22 07:58:56;;;;;;;0.80;0.70;;;;;;;9.24;100.00;100846.00;4992200;28;20081;-77
2022/04/22 08:01:25;;;;;;;0.50;0.50;;;;;;;9.21;100.00;100840.72;4992737;28;20046;-73
2022/04/22 08:03:57;;;;;;;1.13;0.65;;;;;;;9.11;100.00;100825.72;4992282;28;20292;-76
2022/04/22 08:06:26;;;;;;;1.03;0.53;;;;;;;9.17;100.00;100834.56;4992390;28;20054;-76
2022/04/22 08:08:54;;;;;;;0.80;0.57;;;;;;;9.15;100.00;100843.06;4992845;28;20138;-75
2022/04/22 08:11:23;;;;;;;0.65;0.50;;;;;;;9.13;100.00;100836.97;4992279;28;20128;-75
2022/04/22 08:13:53;;;;;;;2.78;0.70;;;;;;;9.07;100.00;100831.56;4992609;28;20050;-76
2022/04/22 08:16:21;;;;;;;1.08;0.70;;;;;;;9.08;100.00;100846.25;4994721;28;20112;-74
2022/04/22 08:18:50;;;;;;;0.75;0.60;;;;;;;9.06;100.00;100856.50;4994141;28;20125;-76
2022/04/22 08:21:19;;;;;;;0.85;0.52;;;;;;;9.05;100.00;100853.88;4992614;28;20043;-74
2022/04/22 08:23:48;;;;;;;1.67;0.68;;;;;;;9.01;100.00;100869.25;4992022;28;20062;-75
2022/04/22 08:26:18;;;;;;;4.53;0.90;;;;;;;8.99;100.00;100877.75;4991943;28;20054;-76
2022/04/22 08:28:46;;;;;;;0.73;0.52;;;;;;;8.93;100.00;100873.25;4991910;28;20046;-75
2022/04/22 08:31:17;;;;;;;1.90;0.47;;;;;;;8.88;100.00;100872.19;4992486;28;20050;-76
2022/04/22 08:33:47;;;;;;;3.80;0.70;;;;;;;8.86;100.00;100873.81;4991730;28;20060;-76
2022/04/22 08:36:15;;;;;;;1.25;0.70;;;;;;;8.84;100.00;100870.28;4991775;28;20043;-76
2022/04/22 08:38:44;;;;;;;1.17;0.63;;;;;;;8.82;100.00;100871.97;4992153;28;20054;-75
2022/04/22 08:41:12;;;;;;;1.60;0.70;;;;;;;8.78;100.00;100880.41;4992247;28;20046;-75
2022/04/22 08:43:41;;;;;;;2.55;0.90;;;;;;;8.75;100.00;100881.16;4991434;28;20054;-76
2022/04/22 08:49:58;;;;;;;0.93;0.70;;;;;;;8.72;100.00;100880.16;4992205;28;20047;-76
2022/04/22 08:51:46;;;;;;;1.75;1.17;;;;;;;8.64;100.00;100866.09;4992091;28;20065;-75
2022/04/22 08:54:16;;;;;;;1.63;1.15;;;;;;;8.62;100.00;100867.72;4992088;28;20578;-76
2022/04/22 08:56:46;;;;;;;1.38;0.60;;;;;;;8.56;100.00;100870.94;4992364;28;20129;-76
2022/04/22 08:59:14;;;;;;;2.33;1.00;;;;;;;8.51;100.00;100870.75;4991636;28;20655;-76
2022/04/22 09:01:43;;;;;;;2.15;0.82;;;;;;;8.38;100.00;100864.22;4991967;28;20078;-73
2022/04/22 09:04:13;;;;;;;1.02;0.70;;;;;;;8.31;100.00;100866.47;4991956;28;20089;-73
2022/04/22 09:06:45;;;;;;;1.48;0.82;;;;;;;8.29;100.00;100883.56;4991725;28;20578;-75
2022/04/22 09:09:27;;;;;;;1.65;0.60;;;;;;;8.24;100.00;100875.66;4990444;28;20046;-75
2022/04/22 09:12:07;;;;;;;1.33;0.88;;;;;;;8.16;100.00;100883.06;4991664;28;20332;-74
2022/04/22 09:14:35;;;;;;;1.75;0.90;;;;;;;8.12;100.00;100890.63;4993619;28;20491;-74
2022/04/22 09:17:04;;;;;;;1.23;0.68;;;;;;;8.08;100.00;100899.91;4993349;28;20558;-75
2022/04/22 09:19:42;;;;;;;5.03;0.93;;;;;;;8.05;100.00;100904.06;4991723;28;20077;-75
2022/04/22 09:22:11;;;;;;;1.15;0.60;;;;;;;8.03;100.00;100906.56;4990749;28;20569;-75
2022/04/22 09:24:49;;;;;;;1.45;0.82;;;;;;;8.03;100.00;100904.00;4991112;28;20093;-75
2022/04/22 09:27:17;;;;;;;1.15;0.60;;;;;;;8.01;100.00;100900.47;4991213;28;20515;-75
2022/04/22 09:29:54;;;;;;;0.63;0.63;;;;;;;7.94;100.00;100886.44;4991217;28;20058;-76
2022/04/22 09:32:26;;;;;;;1.05;0.70;;;;;;;7.96;100.00;100889.97;4991001;28;20510;-76
2022/04/22 09:34:58;;;;;;;2.67;0.98;;;;;;;7.97;100.00;100891.75;4990685;28;20058;-74
2022/04/22 09:43:15;;;;;;;0.90;0.50;;;;;;;7.84;100.00;100904.03;4948830;29;20048;-74
2022/04/22 09:45:43;;;;;;;0.90;0.80;;;;;;;7.80;100.00;100904.72;4949399;29;20058;-74
2022/04/22 09:48:16;;;;;;;1.00;0.52;;;;;;;7.78;100.00;100911.50;4968045;28;20132;-73
2022/04/22 09:50:48;;;;;;;0.90;0.47;;;;;;;7.74;100.00;100916.53;4990934;28;20048;-73
2022/04/22 09:53:17;;;;;;;1.10;0.60;;;;;;;7.72;100.00;100906.97;4990446;28;20172;-74
2022/04/22 09:55:50;;;;;;;1.88;0.50;;;;;;;7.70;100.00;100911.19;4990669;28;20046;-74
2022/04/22 09:58:26;;;;;;;0.90;0.63;;;;;;;7.68;100.00;100908.53;4990075;28;20161;-75
2022/04/22 10:01:03;;;;;;;1.08;0.75;;;;;;;7.65;100.00;100904.91;4990354;28;20081;-76
2022/04/22 10:03:33;;;;;;;2.22;0.60;;;;;;;7.55;100.00;100911.38;4989760;28;20050;-75
2022/04/22 10:06:03;;;;;;;1.30;0.60;;;;;;;7.52;100.00;100906.09;4990437;28;20736;-75
2022/04/22 10:08:36;;;;;;;1.63;1.02;;;;;;;7.52;100.00;100911.25;4990248;28;20504;-71
2022/04/22 10:11:06;;;;;;;1.42;0.77;;;;;;;7.53;100.00;100913.88;4990028;28;20054;-76
2022/04/22 10:13:41;;;;;;;2.53;0.90;;;;;;;7.56;100.00;100923.44;4992983;28;20070;-73
2022/04/22 10:16:10;;;;;;;1.42;0.70;;;;;;;7.57;100.00;100925.19;4990927;28;20085;-72
2022/04/22 10:18:39;;;;;;;0.90;0.70;;;;;;;7.59;100.00;100933.88;4989686;28;20093;-73
2022/04/22 10:21:10;;;;;;;1.50;0.57;;;;;;;7.59;100.00;100944.19;4989938;28;20551;-73
2022/04/22 10:23:38;;;;;;;2.85;0.95;;;;;;;7.58;100.00;100944.97;4989870;28;20531;-75
2022/04/22 10:26:07;;;;;;;3.15;1.15;;;;;;;7.58;100.00;100941.53;4990150;28;20058;-74
2022/04/22 10:28:37;;;;;;;4.05;1.17;;;;;;;7.58;100.00;100947.53;4989948;28;20073;-75
2022/04/22 10:31:06;;;;;;;1.60;1.23;;;;;;;7.58;100.00;100947.53;4990264;28;20054;-75
2022/04/22 10:33:44;;;;;;;4.88;1.77;;;;;;;7.59;100.00;100944.19;4989619;28;20133;-74
2022/04/22 10:36:16;;;;;;;3.75;1.15;;;;;;;7.58;100.00;100957.84;4989650;28;20108;-74
2022/04/22 10:38:47;;;;;;;2.40;1.00;;;;;;;7.55;100.00;100957.72;4990056;28;20054;-75
2022/04/22 10:41:17;;;;;;;2.25;0.95;;;;;;;7.52;100.00;100962.75;4989726;28;20082;-75
2022/04/22 10:47:13;;;;;;;2.05;1.20;;;;;;;7.50;100.00;100954.06;4989272;28;20050;-75
2022/04/22 10:49:38;;;;;;;2.13;0.85;;;;;;;7.58;100.00;100975.88;4989728;28;20085;-74
2022/04/22 10:52:13;;;;;;;2.97;1.08;;;;;;;7.58;100.00;100982.72;4989796;28;20535;-73
2022/04/22 10:55:10;;;;;;;2.10;1.27;;;;;;;7.65;100.00;100990.81;4989940;28;20057;-74
2022/04/22 10:57:42;;;;;;;2.80;1.52;;;;;;;7.67;100.00;100999.50;4989495;28;20046;-74
2022/04/22 11:00:31;;;;;;;3.73;1.33;;;;;;;7.69;100.00;100992.69;4989739;28;20054;-74
2022/04/22 11:03:04;;;;;;;3.90;1.33;;;;;;;7.72;100.00;100995.41;4989711;28;20310;-74
2022/04/22 11:05:37;;;;;;;3.63;1.52;;;;;;;7.73;100.00;100994.59;4988865;28;20050;-74
2022/04/22 11:08:19;;;;;;;3.30;2.05;;;;;;;7.73;100.00;100994.59;4989707;28;20058;-74
2022/04/22 11:11:15;;;;;;;3.65;1.75;;;;;;;7.76;100.00;100996.41;4990037;28;20085;-74
2022/04/22 11:13:52;;;;;;;1.92;1.48;;;;;;;7.74;100.00;100998.94;4952398;28;20078;-74
2022/04/22 11:16:30;;;;;;;3.67;2.05;;;;;;;7.75;100.00;101007.56;4951441;29;20412;-74
2022/04/22 11:19:13;;;;;;;2.20;1.33;;;;;;;7.71;100.00;101006.53;4950324;29;20506;-74
2022/04/22 11:21:43;;;;;;;3.42;1.60;;;;;;;7.71;100.00;101011.66;4969018;28;20055;-74
2022/04/22 11:24:17;;;;;;;2.25;1.40;;;;;;;7.69;100.00;101004.69;4969351;28;20043;-74
2022/04/22 11:26:46;;;;;;;2.97;1.67;;;;;;;7.67;100.00;101004.66;4969583;28;20047;-74
2022/04/22 11:29:15;;;;;;;2.45;1.35;;;;;;;7.62;100.00;101013.84;4969504;28;20050;-74
2022/04/22 11:31:56;;;;;;;2.42;1.20;;;;;;;7.59;100.00;101011.13;4969012;28;20046;-75
2022/04/22 11:34:47;;;;;;;1.40;1.10;;;;;;;7.54;100.00;101021.22;4968369;28;20054;-73
2022/04/22 11:37:19;;;;;;;2.17;1.55;;;;;;;7.52;100.00;101019.38;4970136;28;20141;-73
2022/04/22 11:39:50;;;;;;;2.65;1.55;;;;;;;7.50;100.00;101019.31;4944721;28;20515;-74
2022/04/22 11:42:19;;;;;;;4.57;1.10;;;;;;;7.50;100.00;101015.84;4949579;28;20135;-73
2022/04/22 11:45:02;;;;;;;3.17;1.27;;;;;;;7.45;100.00;101017.34;4950319;29;20055;-73
2022/04/22 11:47:31;;;;;;;2.88;1.50;;;;;;;7.47;100.00;101026.03;4950522;29;20121;-74
2022/04/22 11:50:00;;;;;;;3.15;1.73;;;;;;;7.45;100.00;101040.53;4950365;29;20051;-72
2022/04/22 11:52:30;;;;;;;3.92;1.67;;;;;;;7.40;100.00;101029.09;4949501;29;20497;-72
2022/04/22 11:55:05;;;;;;;2.55;1.20;;;;;;;7.40;100.00;101036.81;4950380;29;20058;-73
2022/04/22 11:57:36;;;;;;;2.70;1.15;;;;;;;7.36;100.00;101047.81;4950459;28;20082;-72
2022/04/22 12:05:49;;;;;;;4.30;1.83;;;;;;;7.28;100.00;101045.75;4950829;29;20531;-73
2022/04/22 12:08:18;;;;;;;4.35;1.42;;;;;;;7.25;100.00;101048.16;4930921;29;20557;-73
2022/04/22 12:10:50;;;;;;;3.60;1.35;;;;;;;7.21;100.00;101047.94;4943540;29;20134;-71
2022/04/22 12:13:19;;;;;;;1.83;1.08;;;;;;;7.18;100.00;101053.84;4988109;28;20609;-72
2022/04/22 12:15:49;;;;;;;2.28;1.33;;;;;;;7.17;100.00;101067.53;4989224;28;20133;-72
2022/04/22 12:18:29;;;;;;;2.53;1.48;;;;;;;7.14;100.00;101062.22;4988826;28;20129;-72
2022/04/22 12:20:58;;;;;;;2.53;1.15;;;;;;;7.09;100.00;101064.56;4988259;28;20054;-72
2022/04/22 12:23:35;;;;;;;2.85;1.30;;;;;;;7.06;100.00;101079.00;4988490;28;20536;-71
2022/04/22 12:26:05;;;;;;;3.63;1.38;;;;;;;7.04;100.00;101090.91;4988521;28;20054;-73
2022/04/22 12:28:34;;;;;;;3.40;1.50;;;;;;;7.02;100.00;101087.34;4988475;28;20074;-73
2022/04/22 12:31:03;;;;;;;4.15;1.25;;;;;;;7.01;100.00;101080.44;4988265;28;20130;-76
2022/04/22 12:33:32;;;;;;;2.28;1.25;;;;;;;6.92;100.00;101086.91;4988359;28;20060;-74
2022/04/22 12:36:07;;;;;;;2.55;1.45;;;;;;;6.81;100.00;101090.63;4988175;28;20058;-75
2022/04/22 12:38:38;;;;;;;6.18;1.10;;;;;;;6.79;100.00;101099.09;4988498;28;20089;-72
2022/04/22 12:41:22;;;;;;;2.90;1.60;;;;;;;6.81;100.00;101100.91;4988168;28;20046;-73
2022/04/22 12:43:53;;;;;;;3.13;1.05;;;;;;;6.81;100.00;101100.91;4989352;28;20060;-73